Time;durP1;ratioP1;P1;durP2;ratioP2;P2;SDS_P1;SDS_P2;PMS_P1;PMS_P2;Temp;Humidity;BMP_temperature;BMP_pressure;BME280_temperature;BME280_humidity;BME280_pressure;Samples;Min_cycle;Max_cycle;Signal;HPM_P1;HPM_P2
2023/09/19 00:02:12;;;;;;;11.13;9.68;;;;;;;;;;5082137;28;20024;-74
2023/09/19 00:04:39;;;;;;;12.75;10.98;;;;;;;;;;5081563;28;20417;-73
2023/09/19 00:07:05;;;;;;;19.67;10.70;;;;;;;;;;5073474;28;20411;-73
2023/09/19 00:09:36;;;;;;;11.07;9.25;;;;;;;;;;5077768;28;20062;-73
2023/09/19 00:12:02;;;;;;;13.43;9.85;;;;;;;;;;5081957;28;20047;-73
2023/09/19 00:14:28;;;;;;;16.50;10.05;;;;;;;;;;5080506;28;20032;-73
2023/09/19 00:16:54;;;;;;;13.07;10.18;;;;;;;;;;5083064;28;20020;-74
2023/09/19 00:19:20;;;;;;;12.50;10.25;;;;;;;;;;5082183;28;20031;-75
2023/09/19 00:21:46;;;;;;;11.30;10.25;;;;;;;;;;5082832;28;20427;-76
2023/09/19 00:24:13;;;;;;;13.07;10.40;;;;;;;;;;5081570;28;20028;-72
2023/09/19 00:26:39;;;;;;;11.93;10.32;;;;;;;;;;5081357;28;20339;-73
2023/09/19 00:29:04;;;;;;;11.82;9.32;;;;;;;;;;5080214;28;20020;-74
2023/09/19 00:31:30;;;;;;;10.20;8.93;;;;;;;;;;5082108;28;20032;-75
2023/09/19 00:33:59;;;;;;;10.43;9.15;;;;;;;;;;5069184;28;20031;-75
2023/09/19 00:36:25;;;;;;;12.50;8.93;;;;;;;;;;5080648;28;20111;-73
2023/09/19 00:38:50;;;;;;;10.45;9.07;;;;;;;;;;5081551;28;20115;-76
2023/09/19 00:41:15;;;;;;;9.95;9.05;;;;;;;;;;5081136;28;20443;-75
2023/09/19 00:43:41;;;;;;;11.13;9.88;;;;;;;;;;5082686;28;20031;-72
2023/09/19 00:46:06;;;;;;;11.45;10.25;;;;;;;;;;5082979;28;20043;-75
2023/09/19 00:48:37;;;;;;;11.02;9.45;;;;;;;;;;5081482;28;20028;-72
2023/09/19 00:51:04;;;;;;;12.05;9.95;;;;;;;;;;5074654;28;20792;-74
2023/09/19 00:53:30;;;;;;;10.65;9.60;;;;;;;;;;5077013;28;20055;-73
2023/09/19 00:55:56;;;;;;;9.63;8.65;;;;;;;;;;5081213;28;20439;-73
2023/09/19 00:58:21;;;;;;;10.40;9.38;;;;;;;;;;5082614;28;20036;-74
2023/09/19 01:00:50;;;;;;;10.35;9.30;;;;;;;;;;5082146;28;20121;-74
2023/09/19 01:03:18;;;;;;;9.65;8.82;;;;;;;;;;5082725;28;20095;-73
2023/09/19 01:05:43;;;;;;;9.65;8.75;;;;;;;;;;5077081;28;20028;-74
2023/09/19 01:08:11;;;;;;;11.00;9.90;;;;;;;;;;5073965;28;20465;-73
2023/09/19 01:10:38;;;;;;;13.55;11.50;;;;;;;;;;5081711;28;20020;-75
2023/09/19 01:13:30;;;;;;;12.27;11.13;;;;;;;;;;5081163;28;20024;-72
2023/09/19 01:16:05;;;;;;;13.13;11.90;;;;;;;;;;5066113;28;20028;-74
2023/09/19 01:18:49;;;;;;;12.40;11.20;;;;;;;;;;5072405;28;20097;-72
2023/09/19 01:21:18;;;;;;;13.88;12.30;;;;;;;;;;5076040;28;20097;-74
2023/09/19 01:24:01;;;;;;;10.00;8.90;;;;;;;;;;5081004;28;20036;-75
2023/09/19 01:26:50;;;;;;;13.30;8.20;;;;;;;;;;5076615;28;20040;-74
2023/09/19 01:29:19;;;;;;;9.20;8.27;;;;;;;;;;5083041;28;20027;-75
2023/09/19 01:31:45;;;;;;;9.23;8.27;;;;;;;;;;5085839;28;20078;-73
2023/09/19 01:34:11;;;;;;;9.77;8.77;;;;;;;;;;5085674;28;20447;-73
2023/09/19 01:36:38;;;;;;;9.63;8.82;;;;;;;;;;5084569;28;20024;-73
2023/09/19 01:39:10;;;;;;;10.60;9.60;;;;;;;;;;5074301;28;20447;-74
2023/09/19 01:41:54;;;;;;;9.60;8.60;;;;;;;;;;5084410;28;20055;-73
2023/09/19 01:44:25;;;;;;;9.27;8.20;;;;;;;;;;5085512;28;20032;-76
2023/09/19 01:46:52;;;;;;;10.05;8.85;;;;;;;;;;5083281;28;20034;-73
2023/09/19 01:49:35;;;;;;;10.85;9.07;;;;;;;;;;5084970;28;20051;-75
2023/09/19 01:52:06;;;;;;;11.30;9.20;;;;;;;;;;5085358;28;20016;-75
2023/09/19 01:54:33;;;;;;;9.57;8.68;;;;;;;;;;5085545;28;20077;-74
2023/09/19 01:57:03;;;;;;;10.45;8.77;;;;;;;;;;5084731;28;20064;-76
2023/09/19 01:59:33;;;;;;;9.48;8.50;;;;;;;;;;5083073;28;20552;-76
2023/09/19 02:01:59;;;;;;;9.55;8.60;;;;;;;;;;5084595;28;20027;-73
2023/09/19 02:04:26;;;;;;;9.95;9.00;;;;;;;;;;5085174;28;20027;-73
2023/09/19 02:06:52;;;;;;;12.40;9.80;;;;;;;;;;5083669;28;20054;-73
2023/09/19 02:09:18;;;;;;;10.60;9.43;;;;;;;;;;5085036;28;20055;-74
2023/09/19 02:11:43;;;;;;;10.32;9.43;;;;;;;;;;5084240;28;20027;-74
2023/09/19 02:14:08;;;;;;;12.40;10.15;;;;;;;;;;5084561;28;20070;-73
2023/09/19 02:16:37;;;;;;;13.90;10.05;;;;;;;;;;5083263;28;20019;-76
2023/09/19 02:19:05;;;;;;;10.43;9.52;;;;;;;;;;5083123;28;20127;-74
2023/09/19 02:21:31;;;;;;;9.82;8.98;;;;;;;;;;5084075;28;20670;-73
2023/09/19 02:23:58;;;;;;;11.65;9.75;;;;;;;;;;5083531;28;20027;-73
2023/09/19 02:26:24;;;;;;;10.27;9.38;;;;;;;;;;5070910;28;20024;-72
2023/09/19 02:28:49;;;;;;;11.80;9.88;;;;;;;;;;5083905;28;20034;-73
2023/09/19 02:31:16;;;;;;;11.40;9.82;;;;;;;;;;5075172;28;20443;-73
2023/09/19 02:33:42;;;;;;;10.40;9.30;;;;;;;;;;5080303;28;20024;-73
2023/09/19 02:36:08;;;;;;;9.80;8.95;;;;;;;;;;5082784;28;20020;-74
2023/09/19 02:38:34;;;;;;;9.57;8.55;;;;;;;;;;5066678;28;20031;-73
2023/09/19 02:40:59;;;;;;;9.57;8.38;;;;;;;;;;5069133;28;20050;-73
2023/09/19 02:43:24;;;;;;;10.85;8.77;;;;;;;;;;5079132;28;20048;-73
2023/09/19 02:45:50;;;;;;;9.10;8.30;;;;;;;;;;5084128;28;20020;-72
2023/09/19 02:48:16;;;;;;;9.63;8.68;;;;;;;;;;5076799;28;20633;-73
2023/09/19 02:50:43;;;;;;;9.10;8.18;;;;;;;;;;5078483;28;20052;-73
2023/09/19 02:53:12;;;;;;;9.45;8.55;;;;;;;;;;5083661;28;20405;-72
2023/09/19 02:55:40;;;;;;;11.45;9.07;;;;;;;;;;5082123;28;20065;-73
2023/09/19 02:58:07;;;;;;;9.65;8.75;;;;;;;;;;5083441;28;20043;-73
2023/09/19 03:00:33;;;;;;;10.77;9.00;;;;;;;;;;5082826;28;20028;-74
2023/09/19 03:02:59;;;;;;;10.98;9.73;;;;;;;;;;5083528;28;20062;-74
2023/09/19 03:05:25;;;;;;;11.25;9.27;;;;;;;;;;5086000;28;20063;-74
2023/09/19 03:07:51;;;;;;;10.38;9.00;;;;;;;;;;5082461;28;20036;-73
2023/09/19 03:10:17;;;;;;;15.63;9.05;;;;;;;;;;5084237;28;20035;-74
2023/09/19 03:12:42;;;;;;;11.55;9.10;;;;;;;;;;5083083;28;20043;-72
2023/09/19 03:15:11;;;;;;;13.48;9.38;;;;;;;;;;5083482;28;20028;-72
2023/09/19 03:17:37;;;;;;;12.60;11.30;;;;;;;;;;5082068;28;20435;-75
2023/09/19 03:20:08;;;;;;;11.90;10.00;;;;;;;;;;5082863;28;20085;-76
2023/09/19 03:22:34;;;;;;;11.25;8.60;;;;;;;;;;5082346;28;20432;-74
2023/09/19 03:25:00;;;;;;;11.55;9.00;;;;;;;;;;5082178;28;20035;-75
2023/09/19 03:27:26;;;;;;;10.85;9.20;;;;;;;;;;5083156;28;20028;-74
2023/09/19 03:29:52;;;;;;;11.75;9.63;;;;;;;;;;5085188;28;20108;-75
2023/09/19 03:32:17;;;;;;;12.00;9.82;;;;;;;;;;5083867;28;20099;-76
2023/09/19 03:34:43;;;;;;;10.07;8.95;;;;;;;;;;5082630;28;20024;-74
2023/09/19 03:37:11;;;;;;;9.75;8.73;;;;;;;;;;5070655;28;20024;-73
2023/09/19 03:39:36;;;;;;;9.80;8.90;;;;;;;;;;5078863;28;20032;-73
2023/09/19 03:42:06;;;;;;;10.65;9.30;;;;;;;;;;5073419;28;20058;-75
2023/09/19 03:44:32;;;;;;;9.35;8.45;;;;;;;;;;5081819;28;20028;-73
2023/09/19 03:46:57;;;;;;;9.27;8.38;;;;;;;;;;5076416;28;20103;-74
2023/09/19 03:49:23;;;;;;;11.10;8.82;;;;;;;;;;5076768;28;20119;-73
2023/09/19 03:51:48;;;;;;;12.20;9.90;;;;;;;;;;5083775;28;20035;-76
2023/09/19 03:54:14;;;;;;;10.68;9.55;;;;;;;;;;5083482;28;20036;-73
2023/09/19 03:56:39;;;;;;;10.70;9.60;;;;;;;;;;5082792;28;20024;-77
2023/09/19 03:59:04;;;;;;;10.95;9.95;;;;;;;;;;5098076;28;20040;-74
2023/09/19 04:01:31;;;;;;;11.45;10.40;;;;;;;;;;5082284;28;20055;-74
2023/09/19 04:03:57;;;;;;;10.65;9.68;;;;;;;;;;5082192;28;20099;-76
2023/09/19 04:06:22;;;;;;;12.48;10.13;;;;;;;;;;5081769;28;20189;-74
2023/09/19 04:08:48;;;;;;;12.18;10.82;;;;;;;;;;5082997;28;20020;-77
2023/09/19 04:11:14;;;;;;;12.68;10.23;;;;;;;;;;5083317;28;20515;-73
2023/09/19 04:13:39;;;;;;;12.07;10.57;;;;;;;;;;5082713;28;20059;-73
2023/09/19 04:16:06;;;;;;;11.88;10.68;;;;;;;;;;5083245;28;20132;-77
2023/09/19 04:18:33;;;;;;;12.55;10.63;;;;;;;;;;5082241;28;20028;-74
2023/09/19 04:20:58;;;;;;;14.35;10.55;;;;;;;;;;5081682;28;20027;-74
2023/09/19 04:23:23;;;;;;;12.15;9.93;;;;;;;;;;5083834;28;20034;-74
2023/09/19 04:25:49;;;;;;;12.38;11.07;;;;;;;;;;5082402;28;20500;-75
2023/09/19 04:28:15;;;;;;;12.20;10.98;;;;;;;;;;5076948;28;20035;-73
2023/09/19 04:30:40;;;;;;;11.75;10.65;;;;;;;;;;5074795;28;20120;-75
2023/09/19 04:33:06;;;;;;;14.52;10.60;;;;;;;;;;5080216;28;20051;-74
2023/09/19 04:35:32;;;;;;;14.45;11.15;;;;;;;;;;5070237;28;20350;-74
2023/09/19 04:37:57;;;;;;;12.93;10.98;;;;;;;;;;5081771;28;20320;-74
2023/09/19 04:40:24;;;;;;;14.50;11.38;;;;;;;;;;5081285;28;20448;-76
2023/09/19 04:42:59;;;;;;;15.07;11.70;;;;;;;;;;5081454;28;20397;-74
2023/09/19 04:45:26;;;;;;;13.02;11.27;;;;;;;;;;5082491;28;20044;-76
2023/09/19 04:47:52;;;;;;;13.07;10.70;;;;;;;;;;5071820;28;20035;-74
2023/09/19 04:50:17;;;;;;;10.90;9.80;;;;;;;;;;5084517;28;20036;-74
2023/09/19 04:52:44;;;;;;;10.98;9.88;;;;;;;;;;5085765;28;20150;-73
2023/09/19 04:55:10;;;;;;;10.25;9.32;;;;;;;;;;5085107;28;20394;-76
2023/09/19 04:57:36;;;;;;;12.52;9.82;;;;;;;;;;5086021;28;20417;-74
2023/09/19 05:00:02;;;;;;;10.73;9.68;;;;;;;;;;5070523;28;20556;-74
2023/09/19 05:02:30;;;;;;;11.73;10.05;;;;;;;;;;5070345;28;20103;-73
2023/09/19 05:04:59;;;;;;;12.18;10.60;;;;;;;;;;5069477;28;20510;-71
2023/09/19 05:07:25;;;;;;;10.35;9.45;;;;;;;;;;5069240;28;20165;-71
2023/09/19 05:09:51;;;;;;;13.10;10.32;;;;;;;;;;5071060;28;23408;-72
2023/09/19 05:12:19;;;;;;;13.18;10.77;;;;;;;;;;5069160;28;20040;-71
2023/09/19 05:14:46;;;;;;;13.57;12.18;;;;;;;;;;5069387;28;20035;-71
2023/09/19 05:17:13;;;;;;;13.63;12.38;;;;;;;;;;5069776;28;20109;-71
2023/09/19 05:19:38;;;;;;;15.38;11.98;;;;;;;;;;5067049;28;20047;-71
2023/09/19 05:22:04;;;;;;;12.10;10.77;;;;;;;;;;5074922;28;20020;-71
2023/09/19 05:24:30;;;;;;;12.63;11.32;;;;;;;;;;5083887;28;20020;-71
2023/09/19 05:26:56;;;;;;;12.82;11.40;;;;;;;;;;5071505;28;20016;-71
2023/09/19 05:29:22;;;;;;;12.68;11.57;;;;;;;;;;5078773;28;20039;-74
2023/09/19 05:31:47;;;;;;;13.77;12.43;;;;;;;;;;5074518;28;20012;-75
2023/09/19 05:34:13;;;;;;;14.20;11.65;;;;;;;;;;5081229;28;20035;-74
2023/09/19 05:36:39;;;;;;;13.45;12.15;;;;;;;;;;5077195;28;20035;-71
2023/09/19 05:39:08;;;;;;;14.38;12.82;;;;;;;;;;5078616;28;20047;-72
2023/09/19 05:41:33;;;;;;;15.32;13.73;;;;;;;;;;5082957;28;20051;-74
2023/09/19 05:43:59;;;;;;;13.73;12.40;;;;;;;;;;5086543;28;20032;-74
2023/09/19 05:46:29;;;;;;;14.88;12.90;;;;;;;;;;5072429;28;20043;-75
2023/09/19 05:48:56;;;;;;;13.30;11.93;;;;;;;;;;5085408;28;20035;-74
2023/09/19 05:51:22;;;;;;;14.25;12.80;;;;;;;;;;5071313;28;20024;-74
2023/09/19 05:53:48;;;;;;;12.48;11.23;;;;;;;;;;5084490;28;20016;-75
2023/09/19 05:56:14;;;;;;;12.75;11.45;;;;;;;;;;5076237;28;20441;-74
2023/09/19 05:58:42;;;;;;;13.65;12.27;;;;;;;;;;5079517;28;20063;-75
2023/09/19 06:01:09;;;;;;;14.07;12.60;;;;;;;;;;5080636;28;20012;-74
2023/09/19 06:03:35;;;;;;;12.02;10.88;;;;;;;;;;5082795;28;20088;-74
2023/09/19 06:06:01;;;;;;;13.00;11.63;;;;;;;;;;5084391;28;20068;-73
2023/09/19 06:08:26;;;;;;;19.75;12.35;;;;;;;;;;5083871;28;20024;-73
2023/09/19 06:10:52;;;;;;;16.05;12.48;;;;;;;;;;5084401;28;20012;-74
2023/09/19 06:13:18;;;;;;;14.52;12.90;;;;;;;;;;5083621;28;20024;-74
2023/09/19 06:15:43;;;;;;;14.55;13.05;;;;;;;;;;5083732;28;20119;-74
2023/09/19 06:18:13;;;;;;;16.00;13.35;;;;;;;;;;5082638;28;20103;-73
2023/09/19 06:20:44;;;;;;;13.57;12.30;;;;;;;;;;5083687;28;20661;-73
2023/09/19 06:23:09;;;;;;;13.05;11.68;;;;;;;;;;5083058;28;20027;-75
2023/09/19 06:25:35;;;;;;;13.02;11.60;;;;;;;;;;5084794;28;20035;-74
2023/09/19 06:28:05;;;;;;;14.45;12.52;;;;;;;;;;5084128;28;20066;-74
2023/09/19 06:30:30;;;;;;;14.73;12.90;;;;;;;;;;5084401;28;20442;-74
2023/09/19 06:32:56;;;;;;;12.55;11.45;;;;;;;;;;5084333;28;20024;-73
2023/09/19 06:35:21;;;;;;;11.40;10.30;;;;;;;;;;5084269;28;20627;-74
2023/09/19 06:37:47;;;;;;;11.50;10.40;;;;;;;;;;5084039;28;20055;-74
2023/09/19 06:40:13;;;;;;;9.55;8.75;;;;;;;;;;5078528;28;20036;-74
2023/09/19 06:42:40;;;;;;;9.20;8.27;;;;;;;;;;5075724;28;20051;-74
2023/09/19 06:45:06;;;;;;;8.85;7.95;;;;;;;;;;5083280;28;20036;-73
2023/09/19 06:47:31;;;;;;;10.20;7.88;;;;;;;;;;5083004;28;20031;-74
2023/09/19 06:49:57;;;;;;;9.88;8.75;;;;;;;;;;5083225;28;20098;-74
2023/09/19 06:52:22;;;;;;;9.55;8.23;;;;;;;;;;5084571;28;20023;-74
2023/09/19 06:54:50;;;;;;;9.55;8.57;;;;;;;;;;5084409;28;20024;-73
2023/09/19 06:57:15;;;;;;;9.55;8.65;;;;;;;;;;5083097;28;20024;-75
2023/09/19 06:59:41;;;;;;;10.25;8.82;;;;;;;;;;5084437;28;20446;-74
2023/09/19 07:02:06;;;;;;;9.40;8.38;;;;;;;;;;5083978;28;20024;-73
2023/09/19 07:04:32;;;;;;;9.00;8.10;;;;;;;;;;5083391;28;20347;-75
2023/09/19 07:06:58;;;;;;;9.57;8.57;;;;;;;;;;5083079;28;20115;-73
2023/09/19 07:09:23;;;;;;;8.82;7.97;;;;;;;;;;5083645;28;20451;-75
2023/09/19 07:11:50;;;;;;;14.45;11.00;;;;;;;;;;5082585;28;20024;-74
2023/09/19 07:14:16;;;;;;;12.63;9.98;;;;;;;;;;5082798;28;20101;-74
2023/09/19 07:16:44;;;;;;;10.55;9.45;;;;;;;;;;5085026;28;20427;-74
2023/09/19 07:19:09;;;;;;;10.25;9.25;;;;;;;;;;5082827;28;20036;-74
2023/09/19 07:21:44;;;;;;;9.45;8.55;;;;;;;;;;5084484;28;20080;-74
2023/09/19 07:24:09;;;;;;;9.38;8.52;;;;;;;;;;5083997;28;20023;-74
2023/09/19 07:26:35;;;;;;;9.00;8.10;;;;;;;;;;5083787;28;20031;-76
2023/09/19 07:29:03;;;;;;;8.55;7.75;;;;;;;;;;5085377;28;20031;-74
2023/09/19 07:31:29;;;;;;;11.02;8.13;;;;;;;;;;5083432;28;20431;-74
2023/09/19 07:33:54;;;;;;;10.18;8.65;;;;;;;;;;5083958;28;20038;-74
2023/09/19 07:36:20;;;;;;;9.32;8.45;;;;;;;;;;5082786;28;20423;-75
2023/09/19 07:38:45;;;;;;;11.85;8.18;;;;;;;;;;5082441;28;20039;-74
2023/09/19 07:41:11;;;;;;;9.23;7.63;;;;;;;;;;5082307;28;20027;-75
2023/09/19 07:43:38;;;;;;;8.75;7.65;;;;;;;;;;5083369;28;20085;-74
2023/09/19 07:46:08;;;;;;;9.10;8.02;;;;;;;;;;5081461;28;20024;-73
2023/09/19 07:48:35;;;;;;;8.80;7.90;;;;;;;;;;5082463;28;20034;-74
2023/09/19 07:51:04;;;;;;;10.95;7.68;;;;;;;;;;5083597;28;20052;-76
2023/09/19 07:53:30;;;;;;;10.05;7.80;;;;;;;;;;5081810;28;20027;-73
2023/09/19 07:56:05;;;;;;;7.60;6.78;;;;;;;;;;5083289;28;20024;-73
2023/09/19 07:58:31;;;;;;;11.20;7.65;;;;;;;;;;5080523;28;20402;-74
2023/09/19 08:00:56;;;;;;;12.35;8.07;;;;;;;;;;5081854;28;20020;-74
2023/09/19 08:03:22;;;;;;;8.40;7.57;;;;;;;;;;5083177;28;20015;-73
2023/09/19 08:05:48;;;;;;;15.13;7.38;;;;;;;;;;5083107;28;20055;-74
2023/09/19 08:08:14;;;;;;;8.98;7.10;;;;;;;;;;5082823;28;20020;-73
2023/09/19 08:10:42;;;;;;;7.85;7.15;;;;;;;;;;5082858;28;20032;-73
2023/09/19 08:13:11;;;;;;;10.35;7.32;;;;;;;;;;5082112;28;20411;-74
2023/09/19 08:15:43;;;;;;;8.25;6.97;;;;;;;;;;5082082;28;20127;-74
2023/09/19 08:18:10;;;;;;;14.10;6.47;;;;;;;;;;5082908;28;20103;-74
2023/09/19 08:20:37;;;;;;;7.15;6.45;;;;;;;;;;5084050;28;20419;-75
2023/09/19 08:23:03;;;;;;;7.82;7.03;;;;;;;;;;5083150;28;20118;-74
2023/09/19 08:25:29;;;;;;;7.93;6.10;;;;;;;;;;5086349;28;20126;-75
2023/09/19 08:27:57;;;;;;;8.00;6.78;;;;;;;;;;5085610;28;20103;-75
2023/09/19 08:30:23;;;;;;;7.30;6.60;;;;;;;;;;5085717;28;20054;-75
2023/09/19 08:32:49;;;;;;;14.23;8.55;;;;;;;;;;5085827;28;20707;-77
2023/09/19 08:35:15;;;;;;;7.90;6.78;;;;;;;;;;5085951;28;20017;-75
2023/09/19 08:37:40;;;;;;;8.93;7.22;;;;;;;;;;5086713;28;20016;-77
2023/09/19 08:40:09;;;;;;;11.15;9.88;;;;;;;;;;5086543;28;20316;-75
2023/09/19 08:42:54;;;;;;;9.32;7.70;;;;;;;;;;5084530;28;20051;-75
2023/09/19 08:45:24;;;;;;;8.05;6.28;;;;;;;;;;5085168;28;20036;-75
2023/09/19 08:48:08;;;;;;;9.15;6.30;;;;;;;;;;5086422;28;20060;-75
2023/09/19 08:50:35;;;;;;;6.70;6.10;;;;;;;;;;5083931;28;20020;-75
2023/09/19 08:53:01;;;;;;;6.88;6.18;;;;;;;;;;5084565;28;20116;-75
2023/09/19 08:55:29;;;;;;;6.07;5.47;;;;;;;;;;5075119;28;20077;-75
2023/09/19 08:58:03;;;;;;;7.73;7.03;;;;;;;;;;5086275;28;20023;-75
2023/09/19 09:00:29;;;;;;;7.93;7.22;;;;;;;;;;5086969;28;20024;-75
2023/09/19 09:02:56;;;;;;;10.13;8.50;;;;;;;;;;5086070;28;20054;-75
2023/09/19 09:05:22;;;;;;;7.53;6.68;;;;;;;;;;5086692;28;20032;-75
2023/09/19 09:07:50;;;;;;;7.43;6.60;;;;;;;;;;5085690;28;20030;-75
2023/09/19 09:10:16;;;;;;;7.45;6.03;;;;;;;;;;5086071;28;20028;-75
2023/09/19 09:12:43;;;;;;;8.90;6.38;;;;;;;;;;5085912;28;20024;-74
2023/09/19 09:15:11;;;;;;;7.20;6.30;;;;;;;;;;5085756;28;20020;-75
2023/09/19 09:17:37;;;;;;;6.80;5.93;;;;;;;;;;5086000;28;20019;-74
2023/09/19 09:20:04;;;;;;;7.57;5.90;;;;;;;;;;5085511;28;20039;-73
2023/09/19 09:22:31;;;;;;;5.72;5.20;;;;;;;;;;5086201;28;20072;-75
2023/09/19 09:24:58;;;;;;;7.15;5.82;;;;;;;;;;5085697;28;20012;-75
2023/09/19 09:27:23;;;;;;;5.65;5.15;;;;;;;;;;5085250;28;20024;-75
2023/09/19 09:29:49;;;;;;;6.65;5.82;;;;;;;;;;5085203;28;21309;-75
2023/09/19 09:32:18;;;;;;;9.38;5.40;;;;;;;;;;5085005;28;20023;-74
2023/09/19 09:34:44;;;;;;;6.22;5.60;;;;;;;;;;5084170;28;20039;-75
2023/09/19 09:37:14;;;;;;;6.15;5.57;;;;;;;;;;5085240;28;20719;-76
2023/09/19 09:39:40;;;;;;;7.05;5.65;;;;;;;;;;5084316;28;20032;-75
2023/09/19 09:42:06;;;;;;;7.45;5.70;;;;;;;;;;5083923;28;20101;-74
2023/09/19 09:44:32;;;;;;;7.10;5.47;;;;;;;;;;5084240;28;20020;-74
2023/09/19 09:47:27;;;;;;;9.27;5.50;;;;;;;;;;5084333;28;20070;-75
2023/09/19 09:49:54;;;;;;;19.50;6.00;;;;;;;;;;5084679;28;20027;-75
2023/09/19 09:52:23;;;;;;;6.18;5.60;;;;;;;;;;5084653;28;20019;-76
2023/09/19 09:55:00;;;;;;;5.88;5.38;;;;;;;;;;5083207;28;20056;-75
2023/09/19 09:57:25;;;;;;;6.90;5.47;;;;;;;;;;5072342;28;20030;-75
2023/09/19 09:59:58;;;;;;;6.82;5.63;;;;;;;;;;5076624;28;20036;-76
2023/09/19 10:02:36;;;;;;;6.30;5.65;;;;;;;;;;5084980;28;20024;-76
2023/09/19 10:05:14;;;;;;;8.45;5.75;;;;;;;;;;5084578;28;20020;-75
2023/09/19 10:07:50;;;;;;;6.32;5.78;;;;;;;;;;5085439;28;20089;-77
2023/09/19 10:10:29;;;;;;;6.65;5.95;;;;;;;;;;5084103;28;20032;-75
2023/09/19 10:12:56;;;;;;;7.95;6.03;;;;;;;;;;5084436;28;20025;-75
2023/09/19 10:15:24;;;;;;;9.85;6.13;;;;;;;;;;5084153;28;20020;-76
2023/09/19 10:17:58;;;;;;;7.88;5.88;;;;;;;;;;5083436;28;20020;-76
2023/09/19 10:20:33;;;;;;;6.97;6.28;;;;;;;;;;5083967;28;20486;-74
2023/09/19 10:23:09;;;;;;;8.02;6.25;;;;;;;;;;5084599;28;20020;-75
2023/09/19 10:25:36;;;;;;;6.25;5.65;;;;;;;;;;5083578;28;20059;-75
2023/09/19 10:28:03;;;;;;;7.55;6.75;;;;;;;;;;5083881;28;20026;-75
2023/09/19 10:30:30;;;;;;;7.10;6.18;;;;;;;;;;5083689;28;20112;-73
2023/09/19 10:33:03;;;;;;;8.18;6.68;;;;;;;;;;5084910;28;20020;-75
2023/09/19 10:35:28;;;;;;;8.00;6.53;;;;;;;;;;5083942;28;20027;-75
2023/09/19 10:37:57;;;;;;;9.73;6.25;;;;;;;;;;5083780;28;20022;-75
2023/09/19 10:40:30;;;;;;;8.63;6.97;;;;;;;;;;5083530;28;20035;-75
2023/09/19 10:42:57;;;;;;;9.15;6.80;;;;;;;;;;5083292;28;20059;-75
2023/09/19 10:45:25;;;;;;;7.40;6.32;;;;;;;;;;5084356;28;20181;-76
2023/09/19 10:47:51;;;;;;;9.10;6.22;;;;;;;;;;5084611;28;20035;-76
2023/09/19 10:50:21;;;;;;;7.40;6.70;;;;;;;;;;5080994;28;20028;-75
2023/09/19 10:52:50;;;;;;;9.13;6.95;;;;;;;;;;5069636;28;20035;-75
2023/09/19 10:55:19;;;;;;;9.83;7.20;;;;;;;;;;5083022;28;20140;-76
2023/09/19 10:57:46;;;;;;;11.13;7.00;;;;;;;;;;5083994;28;20016;-75
2023/09/19 11:00:27;;;;;;;8.65;7.72;;;;;;;;;;5083241;28;20052;-75
2023/09/19 11:03:31;;;;;;;10.60;6.53;;;;;;;;;;5084520;28;20026;-76
2023/09/19 11:06:09;;;;;;;13.10;7.25;;;;;;;;;;5059788;28;20462;-75
2023/09/19 11:08:57;;;;;;;8.60;6.60;;;;;;;;;;5054496;28;20056;-75
2023/09/19 11:11:38;;;;;;;10.20;6.00;;;;;;;;;;5049053;28;20086;-75
2023/09/19 11:14:28;;;;;;;9.30;6.03;;;;;;;;;;5052015;28;20064;-77
2023/09/19 11:17:11;;;;;;;7.30;5.70;;;;;;;;;;5051718;28;20029;-76
2023/09/19 11:19:56;;;;;;;6.57;5.82;;;;;;;;;;5048750;28;20037;-76
2023/09/19 11:22:22;;;;;;;7.18;6.13;;;;;;;;;;5048727;28;20037;-75
2023/09/19 11:24:48;;;;;;;9.98;5.90;;;;;;;;;;5051012;28;20050;-75
2023/09/19 11:27:14;;;;;;;7.57;6.00;;;;;;;;;;5049216;28;20722;-76
2023/09/19 11:29:39;;;;;;;8.90;5.47;;;;;;;;;;5050497;28;20072;-76
2023/09/19 11:32:05;;;;;;;6.70;5.85;;;;;;;;;;5050929;28;20067;-75
2023/09/19 11:34:37;;;;;;;7.80;5.65;;;;;;;;;;5051511;28;20115;-74
2023/09/19 11:37:14;;;;;;;6.95;5.97;;;;;;;;;;5050173;28;20036;-74
2023/09/19 11:39:42;;;;;;;13.10;6.43;;;;;;;;;;5045872;28;20040;-75
2023/09/19 11:42:27;;;;;;;9.32;6.28;;;;;;;;;;5074588;28;20044;-75
2023/09/19 11:44:55;;;;;;;6.70;6.00;;;;;;;;;;5068349;28;20032;-76
2023/09/19 11:47:22;;;;;;;7.78;5.93;;;;;;;;;;5067777;28;20359;-76
2023/09/19 11:49:48;;;;;;;8.15;6.22;;;;;;;;;;5068306;28;20039;-75
2023/09/19 11:52:22;;;;;;;7.65;6.00;;;;;;;;;;5067996;28;20020;-76
2023/09/19 11:54:56;;;;;;;6.78;6.13;;;;;;;;;;5069125;28;20558;-75
2023/09/19 11:57:22;;;;;;;7.80;5.97;;;;;;;;;;5067392;28;20241;-75
2023/09/19 11:59:48;;;;;;;6.85;6.00;;;;;;;;;;5068012;28;20439;-76
2023/09/19 12:02:18;;;;;;;8.32;6.03;;;;;;;;;;5068319;28;20035;-76
2023/09/19 12:04:48;;;;;;;6.15;5.55;;;;;;;;;;5067066;28;20443;-76
2023/09/19 12:07:18;;;;;;;8.50;6.10;;;;;;;;;;5077654;28;20464;-74
2023/09/19 12:09:47;;;;;;;6.57;5.97;;;;;;;;;;5081762;28;20439;-75
2023/09/19 12:12:29;;;;;;;6.82;5.93;;;;;;;;;;5081472;28;20024;-78
2023/09/19 12:14:58;;;;;;;8.00;6.28;;;;;;;;;;5081623;28;20031;-75
2023/09/19 12:17:24;;;;;;;6.70;5.82;;;;;;;;;;5081331;28;20401;-77
2023/09/19 12:19:53;;;;;;;6.80;5.93;;;;;;;;;;5082204;28;20065;-75
2023/09/19 12:22:20;;;;;;;7.28;5.50;;;;;;;;;;5082153;28;20020;-74
2023/09/19 12:24:46;;;;;;;7.80;5.85;;;;;;;;;;5083240;28;20047;-76
2023/09/19 12:27:12;;;;;;;13.43;6.10;;;;;;;;;;5082549;28;20035;-75
2023/09/19 12:29:45;;;;;;;6.25;5.20;;;;;;;;;;5083671;28;20035;-74
2023/09/19 12:32:10;;;;;;;6.13;5.53;;;;;;;;;;5082376;28;20028;-76
2023/09/19 12:34:42;;;;;;;5.82;5.05;;;;;;;;;;5082265;28;20176;-76
2023/09/19 12:37:29;;;;;;;7.47;5.65;;;;;;;;;;5081641;28;20028;-77
2023/09/19 12:40:14;;;;;;;7.43;5.65;;;;;;;;;;5080944;28;20075;-77
2023/09/19 12:42:41;;;;;;;6.32;5.72;;;;;;;;;;5081862;28;20104;-74
2023/09/19 12:45:09;;;;;;;6.68;5.63;;;;;;;;;;5082252;28;20024;-74
2023/09/19 12:47:35;;;;;;;6.80;5.20;;;;;;;;;;5075246;28;20045;-77
2023/09/19 12:50:17;;;;;;;7.28;6.05;;;;;;;;;;5079966;28;20044;-74
2023/09/19 12:52:50;;;;;;;8.57;5.80;;;;;;;;;;5082430;28;20503;-76
2023/09/19 12:55:26;;;;;;;6.38;5.85;;;;;;;;;;5080797;28;20370;-75
2023/09/19 12:58:10;;;;;;;6.43;5.72;;;;;;;;;;5066979;28;20476;-75
2023/09/19 13:00:37;;;;;;;8.40;5.93;;;;;;;;;;5066259;28;20071;-75
2023/09/19 13:03:15;;;;;;;6.82;6.13;;;;;;;;;;5067081;28;20028;-76
2023/09/19 13:05:59;;;;;;;7.75;5.82;;;;;;;;;;5073433;28;20028;-75
2023/09/19 13:08:26;;;;;;;7.32;6.60;;;;;;;;;;5070374;28;20032;-76
2023/09/19 13:11:10;;;;;;;7.28;6.50;;;;;;;;;;5068138;28;20454;-74
2023/09/19 13:13:37;;;;;;;6.63;6.03;;;;;;;;;;5070626;28;20035;-76
2023/09/19 13:16:02;;;;;;;9.05;6.15;;;;;;;;;;5068721;28;20407;-76
2023/09/19 13:18:29;;;;;;;7.32;6.30;;;;;;;;;;5074059;28;20126;-77
2023/09/19 13:21:12;;;;;;;10.10;6.15;;;;;;;;;;5084790;28;20023;-75
2023/09/19 13:23:38;;;;;;;6.97;6.00;;;;;;;;;;5084944;28;20024;-74
2023/09/19 13:26:05;;;;;;;6.40;5.80;;;;;;;;;;5080827;28;20481;-72
2023/09/19 13:28:31;;;;;;;8.70;6.10;;;;;;;;;;5077781;28;20036;-76
2023/09/19 13:30:56;;;;;;;8.25;6.05;;;;;;;;;;5083377;28;20039;-76
2023/09/19 13:33:22;;;;;;;12.00;6.38;;;;;;;;;;5083813;28;20028;-78
2023/09/19 13:35:48;;;;;;;6.85;6.07;;;;;;;;;;5084803;28;20039;-73
2023/09/19 13:38:14;;;;;;;7.82;6.88;;;;;;;;;;5086020;28;20347;-76
2023/09/19 13:40:41;;;;;;;7.30;6.60;;;;;;;;;;5071192;28;20077;-77
2023/09/19 13:43:07;;;;;;;6.93;6.32;;;;;;;;;;5078385;28;20052;-77
2023/09/19 13:45:32;;;;;;;7.25;6.55;;;;;;;;;;5069174;28;20462;-74
2023/09/19 13:48:00;;;;;;;10.30;7.07;;;;;;;;;;5068965;28;20016;-76
2023/09/19 13:50:26;;;;;;;9.07;7.20;;;;;;;;;;5071363;28;20032;-76
2023/09/19 13:52:52;;;;;;;7.85;7.15;;;;;;;;;;5077483;28;20032;-77
2023/09/19 13:55:20;;;;;;;7.65;6.90;;;;;;;;;;5068883;28;20107;-74
2023/09/19 13:57:47;;;;;;;7.45;6.78;;;;;;;;;;5067818;28;20024;-77
2023/09/19 14:00:15;;;;;;;9.98;6.47;;;;;;;;;;5067071;28;20112;-74
2023/09/19 14:02:42;;;;;;;7.00;6.30;;;;;;;;;;5067752;28;20028;-77
2023/09/19 14:05:08;;;;;;;7.82;7.07;;;;;;;;;;5068997;28;20024;-74
2023/09/19 14:07:33;;;;;;;8.52;6.85;;;;;;;;;;5069171;28;20039;-74
2023/09/19 14:09:59;;;;;;;8.85;6.15;;;;;;;;;;5069206;28;20068;-74
2023/09/19 14:12:24;;;;;;;9.00;6.13;;;;;;;;;;5068061;28;20016;-74
2023/09/19 14:14:50;;;;;;;7.00;6.40;;;;;;;;;;5068613;28;20047;-74
2023/09/19 14:17:16;;;;;;;7.93;7.15;;;;;;;;;;5067701;28;20039;-75
2023/09/19 14:19:42;;;;;;;8.00;7.20;;;;;;;;;;5068497;28;20319;-75
2023/09/19 14:22:10;;;;;;;9.07;6.65;;;;;;;;;;5067350;28;20111;-74
2023/09/19 14:24:35;;;;;;;7.10;6.30;;;;;;;;;;5068536;28;20036;-74
2023/09/19 14:27:03;;;;;;;7.97;7.18;;;;;;;;;;5068549;28;20020;-77
2023/09/19 14:29:29;;;;;;;8.55;6.88;;;;;;;;;;5068987;28;20027;-74
2023/09/19 14:31:55;;;;;;;7.30;6.70;;;;;;;;;;5067933;28;20023;-74
2023/09/19 14:34:20;;;;;;;9.45;6.93;;;;;;;;;;5068460;28;23069;-75
2023/09/19 14:36:45;;;;;;;11.88;6.72;;;;;;;;;;5068680;28;20467;-73
2023/09/19 14:39:11;;;;;;;7.65;6.82;;;;;;;;;;5066707;28;21111;-76
2023/09/19 14:41:36;;;;;;;7.85;7.00;;;;;;;;;;5069043;28;20075;-74